Terminal Aerodrome Forecast
Issued by NWS Wilmington, OH

Current Version | Previous Version | Graphics & Text | Print | Product List | Glossary On
Versions: 1 2 3 4 5 6 7 8 9 10 11 12 13 14 15 16 17 18 19 20 21 22 23
000
FTUS41 KILN 190800 AAA
TAFILN
TAF AMD
KILN 190835Z 1909/2006 29008KT P6SM FEW010
     FM191100 33010KT P6SM SKC
     FM191500 31012G20KT P6SM FEW035
     FM200100 34006KT P6SM SCT250=

USA.gov is the U.S. government's official web portal to all federal, state and local government web resources and services.